To NAV CANADA Home Page Login to a new session Search on AWWS site Feedback and Comments Disclaimer Vers la page française équivalente Tips FAQ What's new on the site To the Forecasts and Observations / NOTAM section To "File a Flight Plan" website Publications and other links Update of the User's profile FIC Telephone Numbers My Weather Data Folder Route Weather Data Regional Weather Data Local Weather Data To the Forecasts and Observations / NOTAM section
Request Generated 05/05/2016 at 20:02:11 UTC . Weather information available at that time is displayed.

METAR/TAF

MONCTON/GREATER MONCTON INTL/NB    

METAR CYQM 052000Z 01011KT 1SM R06/P6000FT/D R29/6000FT/N -DZ BR
BKN003 OVC030 04/04 A2988 RMK SF7SC1 SLP123=
SPECI CYQM 051948Z CCA 01012KT 1SM R06/P6000FT/D R29/5500VP6000FT/N
-DZ BR OVC002 04/04 A2988 RMK SF8 SLP124=
SPECI CYQM 051948Z 01012KT 1SM -DZ BR OVC002 04/04 A2988 RMK SF8
SLP124=
SPECI CYQM 051929Z 01013G20KT 1 1/4SM -DZ BR SCT004 BKN009 OVC030
04/04 A2988 RMK SF3SF4SC1 SLP124=
SPECI CYQM 051915Z 01015G20KT 1 1/4SM -DZ BR BKN004 OVC030 04/04
A2988 RMK SF7SC1 SLP123=
METAR CYQM 051900Z 01010G16KT 1 1/4SM -DZ BR OVC003 05/04 A2989 RMK
SF8 SLP125=
SPECI CYQM 051825Z 02015KT 1 1/2SM -DZ BR OVC004 04/04 A2987 RMK SF8
SLP121=
METAR CYQM 051800Z 02016KT 1 1/2SM -DZ BR OVC003 04/04 A2989 RMK SF8
PRESRR SLP125=

TAF CYQM 051744Z 0518/0618 05012G22KT 6SM -RA BR OVC006 TEMPO
0518/0524 2SM -RA -DZ BR OVC003
FM060000 02012KT 2SM -RA -DZ BR OVC003 TEMPO 0600/0606 3SM -RA BR
FM060600 02015KT 3SM RA BR OVC002
FM061000 02015KT 2SM -RA -DZ OVC003
RMK NXT FCST BY 060000Z=
Your time UTC time
Weather data provided by Environment Canada and NAV CANADA